Terminal Aerodrome Forecast
Issued by NWS

Home | Current Version | Previous Version | Text Only | Print | Product List | Glossary On
Versions: 1 2 3 4 5 6 7 8 9 10 11 12 13 14 15 16 17 18 19 20 21
034
FTUS42 TJSJ 292339
TAFJBQ
TAF
TJBQ 292339Z 3000/3024 VRB04KT P6SM VCSH SCT025 BKN070
     FM301700 06012G18KT P6SM VCTS SCT022CB BKN040 BKN090
     FM302300 09008KT P6SM SCT025
      AMD NOT SKED 3002/3011=

USA.gov is the U.S. government's official web portal to all federal, state and local government web resources and services.